createdAt,value
2018-06-13T00:02:01.460Z,85.10
2018-06-13T00:04:31.053Z,85.10
2018-06-13T00:07:00.855Z,85.10
2018-06-13T00:11:59.472Z,85.20
2018-06-13T00:14:28.989Z,84.70
2018-06-13T00:16:58.705Z,86.20
2018-06-13T00:19:28.316Z,85.70
2018-06-13T00:21:57.832Z,85.50
2018-06-13T00:24:27.597Z,85.20
2018-06-13T00:26:57.341Z,84.70
2018-06-13T00:29:27.201Z,84.10
2018-06-13T00:31:56.879Z,84.50
2018-06-13T00:34:26.632Z,86.40
2018-06-13T00:36:56.311Z,86.00
2018-06-13T00:39:25.967Z,85.70
2018-06-13T00:41:55.486Z,86.30
2018-06-13T00:44:25.111Z,86.00
2018-06-13T00:46:54.896Z,85.30
2018-06-13T00:49:24.585Z,85.60
2018-06-13T00:54:23.448Z,85.70
2018-06-13T00:56:53.200Z,86.10
2018-06-13T00:59:22.850Z,86.10
2018-06-13T01:01:52.322Z,85.80
2018-06-13T01:04:21.924Z,86.70
2018-06-13T01:06:51.471Z,86.60
2018-06-13T01:09:21.157Z,86.70
2018-06-13T01:11:50.742Z,86.30
2018-06-13T01:14:20.403Z,86.30
2018-06-13T01:16:50.184Z,87.10
2018-06-13T01:19:19.813Z,87.50
2018-06-13T01:21:49.413Z,87.40
2018-06-13T01:24:19.007Z,87.20
2018-06-13T01:26:48.515Z,87.40
2018-06-13T01:29:18.259Z,87.20
2018-06-13T01:31:48.046Z,87.20
2018-06-13T01:34:17.764Z,87.00
2018-06-13T01:36:47.467Z,86.90
2018-06-13T01:39:17.130Z,86.80
2018-06-13T01:44:15.766Z,87.20
2018-06-13T01:46:45.391Z,86.10
2018-06-13T01:49:14.956Z,86.00
2018-06-13T01:51:44.420Z,86.10
2018-06-13T01:54:14.084Z,86.30
2018-06-13T01:56:43.779Z,85.80
2018-06-13T01:59:13.445Z,85.70
2018-06-13T02:01:43.308Z,85.70
2018-06-13T02:04:12.953Z,85.70
2018-06-13T02:06:42.636Z,85.50
2018-06-13T02:09:12.373Z,85.90
2018-06-13T02:11:41.809Z,86.10
2018-06-13T02:14:11.460Z,85.60
2018-06-13T02:16:41.253Z,85.80
2018-06-13T02:19:11.015Z,86.70
2018-06-13T02:21:40.664Z,85.80
2018-06-13T02:24:10.230Z,85.70
2018-06-13T02:26:39.901Z,86.00
2018-06-13T02:29:09.546Z,85.80
2018-06-13T02:31:39.132Z,85.00
2018-06-13T02:34:08.835Z,85.90
2018-06-13T02:36:38.525Z,85.60
2018-06-13T02:39:09.052Z,86.20
2018-06-13T02:41:38.513Z,85.70
2018-06-13T02:44:08.269Z,86.20
2018-06-13T02:46:38.026Z,86.00
2018-06-13T02:49:07.744Z,85.60
2018-06-13T02:51:37.309Z,86.20
2018-06-13T02:54:06.950Z,87.00
2018-06-13T02:56:36.668Z,85.90
2018-06-13T02:59:06.260Z,86.00
2018-06-13T03:01:36.062Z,86.40
2018-06-13T03:04:05.761Z,86.60
2018-06-13T03:06:35.397Z,85.90
2018-06-13T03:09:06.813Z,86.40
2018-06-13T03:11:36.425Z,85.40
2018-06-13T03:14:06.170Z,85.70
2018-06-13T03:16:35.928Z,86.40
2018-06-13T03:19:05.590Z,85.40
2018-06-13T03:21:35.070Z,86.10
2018-06-13T03:24:06.543Z,85.50
2018-06-13T03:26:39.146Z,86.50
2018-06-13T03:29:11.575Z,85.60
2018-06-13T03:31:42.697Z,85.10
2018-06-13T03:34:12.385Z,85.00
2018-06-13T03:39:11.400Z,84.60
2018-06-13T03:41:41.063Z,85.30
2018-06-13T03:44:10.665Z,84.10
2018-06-13T03:46:40.336Z,84.60
2018-06-13T03:49:10.086Z,84.90
2018-06-13T03:51:39.849Z,84.80
2018-06-13T03:54:09.460Z,85.20
2018-06-13T03:56:39.113Z,85.10
2018-06-13T03:59:08.884Z,85.30
2018-06-13T04:01:38.535Z,85.80
2018-06-13T04:04:08.240Z,86.00
2018-06-13T04:06:38.037Z,86.00
2018-06-13T04:09:08.830Z,85.70
2018-06-13T04:11:38.601Z,85.70
2018-06-13T04:14:08.007Z,86.20
2018-06-13T04:16:37.718Z,85.60
2018-06-13T04:19:07.305Z,85.00
2018-06-13T04:21:37.185Z,85.70
2018-06-13T04:24:06.723Z,84.90
2018-06-13T04:26:36.332Z,84.90
2018-06-13T04:29:05.933Z,84.50
2018-06-13T04:31:35.567Z,85.10
2018-06-13T04:34:05.152Z,85.10
2018-06-13T04:36:34.938Z,84.90
2018-06-13T04:39:06.781Z,85.40
2018-06-13T04:41:36.448Z,85.30
2018-06-13T04:44:06.151Z,85.20
2018-06-13T04:46:35.925Z,85.60
2018-06-13T04:49:05.715Z,84.60
2018-06-13T04:51:35.449Z,83.80
2018-06-13T04:54:04.977Z,84.50
2018-06-13T04:56:34.592Z,83.90
2018-06-13T04:59:04.223Z,83.50
2018-06-13T05:01:33.978Z,83.30
2018-06-13T05:06:32.729Z,83.60
2018-06-13T05:09:02.505Z,83.30
2018-06-13T05:11:32.143Z,84.20
2018-06-13T05:14:01.727Z,83.10
2018-06-13T05:16:31.424Z,82.60
2018-06-13T05:19:01.056Z,83.20
2018-06-13T05:21:30.562Z,83.80
2018-06-13T05:24:00.491Z,82.70
2018-06-13T05:26:30.364Z,83.10
2018-06-13T05:29:00.016Z,83.60
2018-06-13T05:31:29.607Z,83.00
2018-06-13T05:33:59.284Z,83.10
2018-06-13T05:36:29.028Z,82.40
2018-06-13T05:38:58.710Z,82.80
2018-06-13T05:41:28.237Z,82.90
2018-06-13T05:43:57.846Z,81.70
2018-06-13T05:46:27.628Z,81.90
2018-06-13T05:48:57.569Z,82.10
2018-06-13T05:51:27.173Z,81.60
2018-06-13T05:53:56.780Z,82.10
2018-06-13T05:56:26.524Z,81.80
2018-06-13T05:58:56.201Z,81.20
2018-06-13T06:01:25.937Z,81.60
2018-06-13T06:03:55.830Z,80.10
2018-06-13T06:06:25.525Z,81.50
2018-06-13T06:08:55.164Z,81.30
2018-06-13T06:11:24.736Z,80.30
2018-06-13T06:13:54.476Z,79.80
2018-06-13T06:16:24.203Z,80.40
2018-06-13T06:18:53.857Z,82.20
2018-06-13T06:21:23.388Z,81.00
2018-06-13T06:23:53.007Z,80.90
2018-06-13T06:26:22.783Z,80.30
2018-06-13T06:31:21.469Z,79.00
2018-06-13T06:33:51.197Z,78.60
2018-06-13T06:36:20.855Z,78.30
2018-06-13T06:38:50.464Z,79.50
2018-06-13T06:41:20.330Z,78.40
2018-06-13T06:43:50.060Z,80.90
2018-06-13T06:46:19.744Z,80.00
2018-06-13T06:51:18.478Z,77.70
2018-06-13T06:53:48.141Z,76.60
2018-06-13T06:56:17.865Z,74.80
2018-06-13T07:01:16.521Z,66.20
2018-06-13T07:03:46.225Z,64.70
2018-06-13T07:06:15.911Z,63.80
2018-06-13T07:08:45.583Z,60.60
2018-06-13T07:11:15.220Z,56.10
2018-06-13T07:13:44.922Z,51.80
2018-06-13T07:16:14.676Z,49.40
2018-06-13T07:18:44.437Z,47.10
2018-06-13T07:21:14.317Z,45.50
2018-06-13T07:23:43.976Z,43.60
2018-06-13T07:26:13.715Z,42.00
2018-06-13T07:28:43.465Z,40.80
2018-06-13T07:31:13.198Z,39.70
2018-06-13T07:33:42.878Z,39.20
2018-06-13T07:36:12.612Z,39.50
2018-06-13T07:41:11.361Z,39.70
2018-06-13T07:43:41.128Z,39.80
2018-06-13T07:46:10.888Z,39.60
2018-06-13T07:48:40.632Z,40.30
2018-06-13T07:51:10.413Z,39.30
2018-06-13T07:53:40.092Z,40.30
2018-06-13T07:56:09.980Z,43.20
2018-06-13T08:03:38.704Z,50.80
2018-06-13T08:06:08.459Z,52.40
2018-06-13T08:08:38.108Z,52.50
2018-06-13T08:13:36.829Z,51.50
2018-06-13T08:16:06.589Z,53.20
2018-06-13T08:18:36.360Z,55.40
2018-06-13T08:21:05.945Z,56.00
2018-06-13T08:23:35.588Z,57.30
2018-06-13T08:26:05.532Z,55.90
2018-06-13T08:28:35.237Z,57.20
2018-06-13T08:31:05.020Z,58.10
2018-06-13T08:33:34.852Z,57.30
2018-06-13T08:36:04.540Z,58.90
2018-06-13T08:38:34.212Z,60.50
2018-06-13T08:43:32.978Z,62.10
2018-06-13T08:46:02.797Z,60.90
2018-06-13T08:48:32.571Z,60.00
2018-06-13T08:51:02.353Z,63.70
2018-06-13T08:53:32.108Z,63.80
2018-06-13T08:56:02.040Z,62.60
2018-06-13T08:58:31.736Z,65.10
2018-06-13T09:01:01.517Z,66.70
2018-06-13T09:03:31.166Z,64.60
2018-06-13T09:06:00.987Z,63.60
2018-06-13T09:08:30.748Z,64.30
2018-06-13T09:11:00.298Z,65.40
2018-06-13T09:13:30.008Z,65.60
2018-06-13T09:15:59.725Z,64.70
2018-06-13T09:18:29.379Z,62.90
2018-06-13T09:20:59.090Z,60.90
2018-06-13T09:23:28.848Z,61.60
2018-06-13T09:25:58.566Z,60.30
2018-06-13T09:28:28.171Z,62.00
2018-06-13T09:30:57.957Z,61.30
2018-06-13T09:33:27.881Z,59.80
2018-06-13T09:35:57.607Z,59.60
2018-06-13T09:38:27.369Z,60.20
2018-06-13T09:40:57.025Z,59.00
2018-06-13T09:43:26.818Z,62.20
2018-06-13T09:46:03.272Z,62.60
2018-06-13T09:48:26.150Z,61.30
2018-06-13T09:50:55.829Z,58.40
2018-06-13T09:53:25.570Z,57.30
2018-06-13T09:55:55.389Z,53.90
2018-06-13T09:58:24.990Z,50.70
2018-06-13T10:00:59.725Z,47.40
2018-06-13T10:03:29.510Z,45.30
2018-06-13T10:05:59.093Z,43.30
2018-06-13T10:10:57.931Z,42.30
2018-06-13T10:13:27.671Z,41.40
2018-06-13T10:15:57.480Z,41.80
2018-06-13T10:18:27.055Z,41.50
2018-06-13T10:20:56.736Z,41.00
2018-06-13T10:23:26.391Z,41.10
2018-06-13T10:25:56.073Z,42.90
2018-06-13T10:28:25.656Z,42.50
2018-06-13T10:30:55.216Z,42.50
2018-06-13T10:33:25.002Z,43.50
2018-06-13T10:35:54.736Z,44.50
2018-06-13T10:38:24.528Z,47.10
2018-06-13T10:40:54.465Z,46.50
2018-06-13T10:43:24.278Z,48.60
2018-06-13T10:45:54.144Z,50.30
2018-06-13T10:48:23.676Z,49.90
2018-06-13T10:50:53.283Z,50.20
2018-06-13T10:53:23.092Z,51.20
2018-06-13T10:55:54.624Z,52.10
2018-06-13T10:58:24.131Z,52.00
2018-06-13T11:00:53.510Z,52.30
2018-06-13T11:03:22.960Z,51.50
2018-06-13T11:05:52.444Z,52.10
2018-06-13T11:08:21.871Z,51.50
2018-06-13T11:10:51.272Z,51.80
2018-06-13T11:13:20.682Z,52.30
2018-06-13T11:15:50.640Z,53.00
2018-06-13T11:18:20.076Z,53.20
2018-06-13T11:20:58.380Z,53.50
2018-06-13T11:23:35.917Z,51.70
2018-06-13T11:26:07.289Z,52.40
2018-06-13T11:28:38.666Z,53.10
2018-06-13T11:31:08.235Z,52.20
2018-06-13T11:33:38.165Z,53.10
2018-06-13T11:36:07.656Z,53.00
2018-06-13T11:38:37.462Z,54.00
2018-06-13T11:41:06.978Z,54.30
2018-06-13T11:43:36.376Z,54.70
2018-06-13T11:46:05.788Z,55.00
2018-06-13T11:48:35.709Z,55.60
2018-06-13T11:51:05.212Z,56.30
2018-06-13T11:53:34.680Z,56.70
2018-06-13T11:56:04.045Z,56.30
2018-06-13T11:58:33.428Z,56.40
2018-06-13T12:01:04.039Z,55.80
2018-06-13T12:03:34.391Z,56.00
2018-06-13T12:06:04.652Z,54.30
2018-06-13T12:08:35.405Z,55.40
2018-06-13T12:11:04.868Z,55.50
2018-06-13T12:13:34.843Z,55.80
2018-06-13T12:16:04.902Z,56.80
2018-06-13T12:18:34.664Z,56.30
2018-06-13T12:21:04.304Z,56.20
2018-06-13T12:23:33.701Z,56.00
2018-06-13T12:26:03.097Z,55.70
2018-06-13T12:28:32.493Z,55.50
2018-06-13T12:31:01.941Z,55.90
2018-06-13T12:33:31.344Z,55.20
2018-06-13T12:36:01.634Z,56.40
2018-06-13T12:38:31.743Z,56.00
2018-06-13T12:41:01.754Z,56.10
2018-06-13T12:43:31.660Z,55.80
2018-06-13T12:46:01.796Z,55.70
2018-06-13T12:48:31.361Z,54.60
2018-06-13T12:51:01.229Z,54.70
2018-06-13T12:53:31.393Z,56.10
2018-06-13T12:56:01.357Z,55.70
2018-06-13T12:58:31.313Z,56.50
2018-06-13T13:01:00.813Z,57.30
2018-06-13T13:03:30.193Z,56.30
2018-06-13T13:05:59.587Z,57.60
2018-06-13T13:08:28.968Z,57.80
2018-06-13T13:10:58.443Z,57.70
2018-06-13T13:13:28.336Z,58.30
2018-06-13T13:15:57.809Z,59.00
2018-06-13T13:18:27.874Z,58.30
2018-06-13T13:20:57.278Z,58.50
2018-06-13T13:23:27.148Z,59.90
2018-06-13T13:25:56.940Z,60.30
2018-06-13T13:28:27.083Z,59.40
2018-06-13T13:30:56.675Z,60.10
2018-06-13T13:33:27.243Z,61.10
2018-06-13T13:35:57.545Z,58.50
2018-06-13T13:38:27.002Z,58.30
2018-06-13T13:40:57.289Z,59.40
2018-06-13T13:43:27.220Z,60.20
2018-06-13T13:45:57.310Z,58.40
2018-06-13T13:48:26.944Z,58.90
2018-06-13T13:50:56.308Z,59.00
2018-06-13T13:53:26.017Z,57.70
2018-06-13T13:55:55.424Z,61.20
2018-06-13T13:58:24.823Z,58.70
2018-06-13T14:00:54.205Z,59.20
2018-06-13T14:03:23.600Z,59.40
2018-06-13T14:05:52.989Z,58.10
2018-06-13T14:08:22.372Z,59.50
2018-06-13T14:10:51.746Z,60.50
2018-06-13T14:13:21.169Z,60.30
2018-06-13T14:15:51.565Z,61.60
2018-06-13T14:18:22.180Z,61.90
2018-06-13T14:20:52.857Z,61.80
2018-06-13T14:23:23.570Z,62.90
2018-06-13T14:25:53.880Z,62.00
2018-06-13T14:28:24.012Z,61.10
2018-06-13T14:30:53.986Z,63.30
2018-06-13T14:33:24.256Z,60.60
2018-06-13T14:35:55.536Z,62.50
2018-06-13T14:38:25.833Z,61.60
2018-06-13T14:40:55.266Z,60.90
2018-06-13T14:43:25.005Z,59.70
2018-06-13T14:45:55.102Z,59.30
2018-06-13T14:48:24.497Z,59.30
2018-06-13T14:50:54.177Z,61.50
2018-06-13T14:53:24.515Z,60.90
2018-06-13T14:55:59.322Z,61.00
2018-06-13T14:58:29.441Z,63.00
2018-06-13T15:00:58.935Z,61.60
2018-06-13T15:03:28.900Z,61.60
2018-06-13T15:05:58.473Z,61.40
2018-06-13T15:08:28.346Z,61.50
2018-06-13T15:10:57.737Z,61.70
2018-06-13T15:13:27.910Z,61.30
2018-06-13T15:15:58.385Z,62.10
2018-06-13T15:18:27.760Z,61.30
2018-06-13T15:20:57.531Z,60.80
2018-06-13T15:23:27.529Z,62.10
2018-06-13T15:25:57.597Z,60.50
2018-06-13T15:28:27.173Z,61.50
2018-06-13T15:30:56.885Z,63.00
2018-06-13T15:33:26.367Z,61.70
2018-06-13T15:35:55.984Z,60.50
2018-06-13T15:38:25.508Z,60.60
2018-06-13T15:40:54.901Z,59.80
2018-06-13T15:43:24.334Z,60.10
2018-06-13T15:45:53.738Z,59.20
2018-06-13T15:48:23.108Z,61.10
2018-06-13T15:50:52.501Z,61.10
2018-06-13T15:53:22.145Z,59.70
2018-06-13T15:55:51.586Z,59.80
2018-06-13T15:58:20.944Z,59.10
2018-06-13T16:00:50.321Z,59.90
2018-06-13T16:03:19.685Z,61.20
2018-06-13T16:05:49.092Z,60.10
2018-06-13T16:08:18.477Z,59.40
2018-06-13T16:10:47.869Z,60.10
2018-06-13T16:13:17.248Z,58.00
2018-06-13T16:15:46.654Z,59.80
2018-06-13T16:18:16.045Z,59.20
2018-06-13T16:20:45.519Z,59.40
2018-06-13T16:23:14.906Z,59.40
2018-06-13T16:25:44.310Z,60.40
2018-06-13T16:28:13.701Z,59.70
2018-06-13T16:30:43.133Z,58.90
2018-06-13T16:33:12.534Z,58.50
2018-06-13T16:35:41.942Z,59.50
2018-06-13T16:38:12.304Z,57.70
2018-06-13T16:40:42.336Z,58.70
2018-06-13T16:43:11.743Z,59.90
2018-06-13T16:45:41.329Z,58.10
2018-06-13T16:48:10.744Z,58.10
2018-06-13T16:50:50.845Z,58.40
2018-06-13T16:53:31.005Z,57.10
2018-06-13T16:56:00.444Z,56.80
2018-06-13T16:58:30.287Z,59.60
2018-06-13T17:00:59.848Z,59.00
2018-06-13T17:03:29.238Z,60.20
2018-06-13T17:05:58.613Z,57.40
2018-06-13T17:08:27.980Z,58.00
2018-06-13T17:10:57.357Z,57.10
2018-06-13T17:13:26.729Z,57.70
2018-06-13T17:15:56.177Z,57.40
2018-06-13T17:18:25.611Z,57.50
2018-06-13T17:20:54.980Z,58.60
2018-06-13T17:23:24.385Z,58.90
2018-06-13T17:25:53.976Z,58.20
2018-06-13T17:28:23.424Z,59.50
2018-06-13T17:30:54.654Z,59.60
2018-06-13T17:33:25.031Z,59.30
2018-06-13T17:35:55.716Z,57.70
2018-06-13T17:38:26.168Z,58.80
2018-06-13T17:40:56.826Z,59.10
2018-06-13T17:43:26.674Z,60.50
2018-06-13T17:45:56.045Z,58.70
2018-06-13T17:48:25.438Z,60.70
2018-06-13T17:50:55.146Z,60.40
2018-06-13T17:53:24.889Z,61.60
2018-06-13T17:55:54.286Z,61.90
2018-06-13T17:58:24.340Z,61.60
2018-06-13T18:00:54.337Z,65.50
2018-06-13T18:03:24.836Z,63.30
2018-06-13T18:05:55.026Z,61.30
2018-06-13T18:08:25.232Z,61.40
2018-06-13T18:10:54.740Z,59.30
2018-06-13T18:13:24.874Z,61.20
2018-06-13T18:15:54.617Z,61.60
2018-06-13T18:18:24.183Z,62.00
2018-06-13T18:20:53.893Z,62.90
2018-06-13T18:23:23.547Z,62.60
2018-06-13T18:25:53.305Z,64.10
2018-06-13T18:28:22.964Z,64.70
2018-06-13T18:30:52.564Z,64.20
2018-06-13T18:33:22.251Z,65.00
2018-06-13T18:35:51.933Z,63.70
2018-06-13T18:38:21.461Z,63.70
2018-06-13T18:40:51.300Z,64.20
2018-06-13T18:43:20.801Z,65.10
2018-06-13T18:45:50.396Z,65.40
2018-06-13T18:48:19.925Z,65.70
2018-06-13T18:50:49.456Z,67.70
2018-06-13T18:53:19.185Z,67.30
2018-06-13T18:58:17.532Z,68.80
2018-06-13T19:00:47.135Z,69.90
2018-06-13T19:03:16.939Z,69.30
2018-06-13T19:05:46.827Z,70.40
2018-06-13T19:08:16.441Z,69.10
2018-06-13T19:10:46.015Z,70.10
2018-06-13T19:13:15.612Z,69.70
2018-06-13T19:15:45.204Z,70.40
2018-06-13T19:18:14.747Z,69.80
2018-06-13T19:20:44.816Z,70.60
2018-06-13T19:23:14.346Z,70.30
2018-06-13T19:25:43.941Z,70.00
2018-06-13T19:28:13.533Z,70.40
2018-06-13T19:30:43.270Z,70.40
2018-06-13T19:33:12.652Z,71.80
2018-06-13T19:35:42.037Z,71.80
2018-06-13T19:38:11.445Z,70.20
2018-06-13T19:40:40.834Z,71.30
2018-06-13T19:43:15.220Z,71.60
2018-06-13T19:45:44.607Z,71.90
2018-06-13T19:48:50.082Z,70.20
2018-06-13T19:51:19.486Z,71.60
2018-06-13T19:53:53.929Z,71.30
2018-06-13T19:56:32.180Z,71.90
2018-06-13T19:59:01.623Z,71.50
2018-06-13T20:01:30.996Z,72.70
2018-06-13T20:04:05.324Z,73.00
2018-06-13T20:06:37.763Z,71.20
2018-06-13T20:09:09.285Z,72.50
2018-06-13T20:11:39.101Z,72.60
2018-06-13T20:14:13.853Z,72.50
2018-06-13T20:16:52.558Z,71.70
2018-06-13T20:19:27.360Z,72.70
2018-06-13T20:21:58.353Z,72.30
2018-06-13T20:24:28.020Z,71.50
2018-06-13T20:27:02.396Z,70.70
2018-06-13T20:29:36.781Z,71.00
2018-06-13T20:32:06.304Z,70.60
2018-06-13T20:34:36.128Z,71.10
2018-06-13T20:37:05.908Z,71.90
2018-06-13T20:39:35.337Z,71.90
2018-06-13T20:42:04.741Z,73.00
2018-06-13T20:44:34.121Z,72.60
2018-06-13T20:47:03.493Z,72.70
2018-06-13T20:49:32.852Z,72.60
2018-06-13T20:52:02.234Z,73.60
2018-06-13T20:54:31.646Z,72.70
2018-06-13T20:57:01.045Z,73.10
2018-06-13T20:59:30.448Z,72.90
2018-06-13T21:01:59.833Z,73.20
2018-06-13T21:04:29.209Z,73.00
2018-06-13T21:06:58.581Z,72.80
2018-06-13T21:09:27.969Z,72.70
2018-06-13T21:11:57.328Z,72.00
2018-06-13T21:14:26.722Z,72.40
2018-06-13T21:16:56.134Z,74.20
2018-06-13T21:19:25.503Z,73.20
2018-06-13T21:21:54.868Z,72.70
2018-06-13T21:24:24.244Z,72.80
2018-06-13T21:26:53.637Z,72.70
2018-06-13T21:29:22.996Z,72.40
2018-06-13T21:31:52.365Z,72.90
2018-06-13T21:34:21.800Z,72.00
2018-06-13T21:36:51.198Z,73.00
2018-06-13T21:39:20.573Z,73.30
2018-06-13T21:41:49.965Z,72.90
2018-06-13T21:44:19.481Z,73.60
2018-06-13T21:46:48.876Z,72.70
2018-06-13T21:49:18.260Z,72.50
2018-06-13T21:51:47.988Z,72.00
2018-06-13T21:54:17.846Z,72.30
2018-06-13T21:56:47.594Z,71.90
2018-06-13T21:59:17.452Z,71.30
2018-06-13T22:01:47.291Z,71.90
2018-06-13T22:04:17.005Z,71.60
2018-06-13T22:06:46.736Z,72.70
2018-06-13T22:09:16.428Z,72.70
2018-06-13T22:11:51.000Z,73.00
2018-06-13T22:14:20.792Z,72.50
2018-06-13T22:16:50.876Z,72.70
2018-06-13T22:19:22.472Z,72.60
2018-06-13T22:21:52.657Z,73.00
2018-06-13T22:24:22.440Z,72.30
2018-06-13T22:26:52.110Z,73.40
2018-06-13T22:29:21.966Z,72.50
2018-06-13T22:31:51.833Z,72.00
2018-06-13T22:34:21.594Z,71.40
2018-06-13T22:36:51.141Z,72.10
2018-06-13T22:39:20.737Z,72.20
2018-06-13T22:41:50.426Z,71.60
2018-06-13T22:44:20.069Z,71.90
2018-06-13T22:46:49.873Z,72.90
2018-06-13T22:49:19.580Z,73.50
2018-06-13T22:51:49.409Z,72.60
2018-06-13T22:54:19.165Z,72.80
2018-06-13T22:56:48.902Z,72.70
2018-06-13T22:59:18.581Z,72.90
2018-06-13T23:01:48.237Z,72.60
2018-06-13T23:04:17.901Z,73.50
2018-06-13T23:06:47.557Z,73.20
2018-06-13T23:09:17.372Z,73.50
2018-06-13T23:11:47.151Z,72.10
2018-06-13T23:14:16.765Z,72.40
2018-06-13T23:16:46.488Z,73.80
2018-06-13T23:19:16.207Z,72.60
2018-06-13T23:21:45.902Z,73.40
2018-06-13T23:24:15.584Z,73.80
2018-06-13T23:29:14.648Z,73.40
2018-06-13T23:31:44.396Z,73.20
2018-06-13T23:34:14.073Z,73.00
2018-06-13T23:36:43.861Z,72.90
2018-06-13T23:39:13.705Z,72.90
2018-06-13T23:41:43.476Z,72.20
2018-06-13T23:44:13.205Z,72.80
2018-06-13T23:46:42.924Z,73.30
2018-06-13T23:49:12.776Z,73.10
2018-06-13T23:51:42.433Z,71.70
2018-06-13T23:54:12.201Z,72.20
2018-06-13T23:56:41.844Z,72.70
2018-06-13T23:59:11.460Z,72.10
